createdAt,value
2024-05-09T00:00:45.915Z,13.59
2024-05-09T00:05:47.632Z,13.53
2024-05-09T00:10:49.547Z,13.42
2024-05-09T00:15:51.236Z,13.54
2024-05-09T00:20:53.129Z,13.53
2024-05-09T00:25:54.765Z,13.49
2024-05-09T00:30:56.354Z,13.38
2024-05-09T00:35:57.960Z,13.35
2024-05-09T00:40:59.604Z,13.23
2024-05-09T00:46:02.102Z,12.86
2024-05-09T00:51:04.901Z,12.68
2024-05-09T00:56:09.750Z,12.78
2024-05-09T01:01:11.472Z,12.76
2024-05-09T01:06:13.123Z,12.76
2024-05-09T01:11:16.464Z,12.91
2024-05-09T01:16:18.087Z,12.92
2024-05-09T01:21:20.201Z,12.77
2024-05-09T01:26:22.382Z,12.49
2024-05-09T01:31:24.039Z,12.22
2024-05-09T01:36:25.914Z,12.15
2024-05-09T01:41:27.744Z,12.50
2024-05-09T01:46:29.872Z,12.33
2024-05-09T01:51:31.922Z,12.20
2024-05-09T01:56:33.919Z,12.18
2024-05-09T02:01:55.616Z,12.17
2024-05-09T02:06:57.260Z,12.11
2024-05-09T02:11:59.055Z,11.86
2024-05-09T02:17:00.699Z,12.04
2024-05-09T02:22:02.608Z,12.03
2024-05-09T02:27:04.767Z,12.06
2024-05-09T02:32:06.968Z,12.08
2024-05-09T02:37:08.638Z,11.87
2024-05-09T02:42:10.520Z,11.49
2024-05-09T02:47:12.739Z,11.75
2024-05-09T02:52:18.648Z,11.58
2024-05-09T02:57:20.513Z,11.71
2024-05-09T03:02:22.232Z,11.94
2024-05-09T03:07:23.881Z,11.63
2024-05-09T03:12:25.501Z,11.50
2024-05-09T03:17:27.705Z,11.45
2024-05-09T03:22:29.931Z,11.49
2024-05-09T03:27:31.829Z,11.52
2024-05-09T03:32:33.877Z,11.45
2024-05-09T03:37:35.978Z,11.18
2024-05-09T03:42:41.620Z,11.17
2024-05-09T03:47:43.750Z,10.87
2024-05-09T03:52:45.557Z,11.07
2024-05-09T03:57:47.149Z,11.29
2024-05-09T04:02:49.483Z,11.39
2024-05-09T04:07:51.303Z,11.36
2024-05-09T04:12:53.348Z,11.44
2024-05-09T04:17:56.143Z,11.45
2024-05-09T04:22:57.971Z,11.47
2024-05-09T04:27:59.700Z,11.51
2024-05-09T04:33:02.436Z,11.53
2024-05-09T04:38:05.089Z,11.54
2024-05-09T04:43:13.900Z,11.60
2024-05-09T04:48:17.119Z,11.58
2024-05-09T04:53:19.215Z,11.58
2024-05-09T04:58:21.139Z,11.58
2024-05-09T05:03:23.075Z,11.58
2024-05-09T05:08:24.860Z,11.72
2024-05-09T05:13:37.949Z,11.73
2024-05-09T05:18:41.239Z,11.75
2024-05-09T05:23:43.154Z,12.10
2024-05-09T05:28:45.100Z,12.06
2024-05-09T05:33:48.647Z,12.01
2024-05-09T05:38:50.736Z,12.24
2024-05-09T05:43:52.780Z,12.35
2024-05-09T05:48:54.459Z,12.64
2024-05-09T05:53:56.348Z,12.77
2024-05-09T05:58:58.210Z,12.98
2024-05-09T06:03:59.974Z,13.24
2024-05-09T06:09:01.655Z,13.22
2024-05-09T06:14:05.404Z,13.31
2024-05-09T06:19:07.146Z,13.37
2024-05-09T06:24:08.754Z,13.62
2024-05-09T06:29:10.439Z,13.80
2024-05-09T06:34:12.447Z,14.13
2024-05-09T06:39:14.435Z,14.35
2024-05-09T06:44:16.269Z,14.48
2024-05-09T06:49:18.248Z,14.99
2024-05-09T06:54:19.903Z,15.20
2024-05-09T06:59:21.731Z,15.43
2024-05-09T07:04:23.754Z,15.96
2024-05-09T07:09:25.639Z,16.36
2024-05-09T07:14:28.062Z,16.90
2024-05-09T07:19:30.014Z,17.36
2024-05-09T07:24:31.713Z,17.69
2024-05-09T07:29:36.149Z,18.41
2024-05-09T07:34:39.099Z,18.36
2024-05-09T07:39:41.258Z,18.63
2024-05-09T07:44:43.397Z,18.95
2024-05-09T07:51:32.515Z,19.51
2024-05-09T07:55:07.254Z,19.91
2024-05-09T08:00:14.243Z,20.00
2024-05-09T08:05:16.177Z,20.51
2024-05-09T08:10:22.171Z,21.03
2024-05-09T08:15:28.864Z,20.91
2024-05-09T08:20:35.131Z,21.59
2024-05-09T08:25:37.161Z,21.42
2024-05-09T08:30:39.016Z,21.86
2024-05-09T08:35:40.866Z,22.03
2024-05-09T08:40:42.841Z,21.82
2024-05-09T08:45:46.127Z,21.56
2024-05-09T08:50:52.053Z,21.26
2024-05-09T08:55:55.385Z,21.07
2024-05-09T09:00:57.927Z,21.23
2024-05-09T09:06:06.736Z,21.37
2024-05-09T09:11:08.455Z,21.24
2024-05-09T09:16:10.197Z,20.74
2024-05-09T09:21:11.939Z,21.08
2024-05-09T09:26:17.236Z,20.81
2024-05-09T09:31:19.579Z,20.87
2024-05-09T09:36:21.244Z,20.73
2024-05-09T09:41:27.524Z,20.29
2024-05-09T09:46:30.479Z,20.74
2024-05-09T09:51:33.595Z,21.23
2024-05-09T09:56:38.715Z,21.21
2024-05-09T10:01:44.920Z,21.20
2024-05-09T10:06:53.090Z,21.63
2024-05-09T10:11:59.950Z,20.90
2024-05-09T10:17:05.751Z,20.57
2024-05-09T10:22:10.630Z,21.30
2024-05-09T10:27:12.546Z,21.92
2024-05-09T10:32:14.516Z,22.03
2024-05-09T10:37:16.275Z,21.34
2024-05-09T10:42:19.498Z,22.16
2024-05-09T10:47:21.612Z,22.82
2024-05-09T10:52:24.555Z,23.35
2024-05-09T10:57:27.575Z,23.25
2024-05-09T11:02:29.636Z,22.44
2024-05-09T11:07:32.014Z,22.73
2024-05-09T11:12:33.717Z,22.86
2024-05-09T11:17:38.245Z,22.42
2024-05-09T11:22:39.884Z,22.65
2024-05-09T11:27:42.382Z,22.80
2024-05-09T11:32:44.361Z,22.70
2024-05-09T11:37:46.641Z,22.64
2024-05-09T11:42:50.009Z,22.97
2024-05-09T11:47:53.620Z,22.79
2024-05-09T11:52:55.289Z,22.74
2024-05-09T11:57:57.561Z,23.07
2024-05-09T12:02:59.794Z,23.84
2024-05-09T12:08:02.585Z,23.89
2024-05-09T12:13:06.289Z,24.25
2024-05-09T12:18:09.138Z,24.13
2024-05-09T12:23:10.998Z,24.69
2024-05-09T12:28:12.743Z,24.54
2024-05-09T12:33:14.867Z,25.29
2024-05-09T12:38:16.620Z,25.88
2024-05-09T12:43:18.455Z,25.90
2024-05-09T12:48:20.274Z,25.58
2024-05-09T12:53:21.888Z,25.95
2024-05-09T12:58:23.706Z,25.73
2024-05-09T13:03:25.485Z,25.38
2024-05-09T13:08:27.328Z,24.83
2024-05-09T13:13:29.377Z,25.37
2024-05-09T13:18:31.107Z,24.86
2024-05-09T13:23:32.891Z,25.26
2024-05-09T13:28:34.879Z,25.85
2024-05-09T13:33:36.884Z,26.24
2024-05-09T13:38:38.596Z,25.46
2024-05-09T13:43:40.214Z,24.64
2024-05-09T13:48:42.111Z,25.31
2024-05-09T13:53:43.795Z,26.22
2024-05-09T13:58:45.572Z,26.07
2024-05-09T14:03:47.275Z,26.49
2024-05-09T14:08:49.347Z,26.43
2024-05-09T14:13:51.381Z,26.52
2024-05-09T14:18:53.250Z,26.68
2024-05-09T14:23:54.938Z,25.66
2024-05-09T14:28:56.997Z,26.29
2024-05-09T14:33:59.046Z,26.44
2024-05-09T14:39:00.764Z,26.73
2024-05-09T14:44:02.751Z,26.69
2024-05-09T14:49:05.733Z,26.89
2024-05-09T14:54:08.132Z,25.74
2024-05-09T14:59:09.847Z,24.89
2024-05-09T15:04:11.589Z,25.75
2024-05-09T15:09:13.702Z,25.66
2024-05-09T15:14:15.903Z,25.27
2024-05-09T15:19:17.816Z,25.75
2024-05-09T15:24:20.087Z,26.23
2024-05-09T15:29:21.800Z,26.30
2024-05-09T15:34:23.421Z,26.13
2024-05-09T15:39:25.389Z,26.11
2024-05-09T15:44:26.953Z,26.27
2024-05-09T15:49:28.654Z,26.31
2024-05-09T15:54:30.650Z,26.07
2024-05-09T15:59:33.075Z,25.45
2024-05-09T16:04:34.812Z,25.35
2024-05-09T16:09:37.186Z,25.27
2024-05-09T16:14:39.314Z,25.17
2024-05-09T16:19:41.322Z,25.08
2024-05-09T16:24:43.089Z,24.95
2024-05-09T16:29:45.003Z,24.88
2024-05-09T16:34:48.349Z,24.80
2024-05-09T16:39:50.035Z,24.54
2024-05-09T16:44:51.753Z,24.43
2024-05-09T16:49:53.420Z,24.46
2024-05-09T16:54:55.429Z,24.36
2024-05-09T16:59:57.428Z,23.93
2024-05-09T17:04:59.148Z,23.89
2024-05-09T17:10:00.881Z,23.87
2024-05-09T17:15:02.647Z,23.66
2024-05-09T17:20:08.255Z,23.55
2024-05-09T17:25:11.472Z,23.39
2024-05-09T17:30:21.184Z,23.30
2024-05-09T17:35:31.234Z,23.15
2024-05-09T17:40:36.182Z,23.14
2024-05-09T17:45:40.859Z,22.91
2024-05-09T17:50:43.400Z,22.85
2024-05-09T17:55:45.106Z,22.76
2024-05-09T18:00:46.972Z,22.65
2024-05-09T18:05:48.829Z,22.52
2024-05-09T18:10:52.122Z,22.42
2024-05-09T18:15:55.080Z,22.23
2024-05-09T18:20:56.746Z,22.12
2024-05-09T18:25:58.419Z,22.05
2024-05-09T18:31:00.110Z,22.08
2024-05-09T18:36:01.957Z,21.97
2024-05-09T18:41:03.596Z,21.81
2024-05-09T18:46:05.502Z,21.65
2024-05-09T18:51:07.235Z,21.33
2024-05-09T18:56:09.041Z,21.11
2024-05-09T19:01:11.343Z,21.01
2024-05-09T19:06:13.007Z,20.67
2024-05-09T19:11:14.622Z,20.32
2024-05-09T19:16:16.389Z,20.00
2024-05-09T19:21:18.053Z,19.70
2024-05-09T19:26:19.778Z,19.15
2024-05-09T19:31:21.462Z,19.00
2024-05-09T19:36:29.147Z,18.90
2024-05-09T19:41:30.827Z,19.06
2024-05-09T19:46:32.594Z,19.18
2024-05-09T19:51:34.246Z,19.19
2024-05-09T19:56:35.932Z,18.99
2024-05-09T20:01:37.726Z,18.92
2024-05-09T20:06:40.960Z,18.95
2024-05-09T20:11:42.786Z,18.94
2024-05-09T20:16:44.765Z,18.82
2024-05-09T20:21:46.382Z,18.77
2024-05-09T20:26:48.024Z,18.73
2024-05-09T20:31:49.671Z,18.67
2024-05-09T20:36:51.477Z,18.61
2024-05-09T20:41:54.259Z,18.41
2024-05-09T20:46:55.948Z,18.11
2024-05-09T20:51:57.899Z,17.92
2024-05-09T20:56:59.544Z,17.91
2024-05-09T21:02:01.204Z,17.72
2024-05-09T21:07:02.884Z,17.64
2024-05-09T21:12:05.000Z,17.62
2024-05-09T21:17:06.740Z,17.64
2024-05-09T21:22:08.403Z,17.53
2024-05-09T21:27:10.003Z,17.49
2024-05-09T21:32:11.588Z,17.49
2024-05-09T21:37:13.298Z,17.46
2024-05-09T21:42:14.922Z,17.39
2024-05-09T21:47:16.560Z,17.36
2024-05-09T21:52:19.412Z,17.01
2024-05-09T21:57:21.948Z,16.96
2024-05-09T22:02:24.132Z,17.03
2024-05-09T22:07:26.049Z,17.06
2024-05-09T22:12:27.996Z,17.09
2024-05-09T22:17:30.081Z,17.05
2024-05-09T22:22:32.043Z,16.86
2024-05-09T22:27:34.507Z,16.89
2024-05-09T22:32:36.626Z,17.03
2024-05-09T22:37:38.573Z,17.06
2024-05-09T22:42:41.747Z,17.00
2024-05-09T22:47:43.518Z,16.96
2024-05-09T22:52:45.195Z,16.60
2024-05-09T22:57:47.020Z,16.71
2024-05-09T23:02:49.024Z,16.79
2024-05-09T23:07:50.687Z,16.73
2024-05-09T23:12:52.810Z,16.66
2024-05-09T23:17:55.574Z,16.59
2024-05-09T23:22:57.680Z,16.41
2024-05-09T23:27:59.778Z,16.25
2024-05-09T23:33:02.047Z,16.08
2024-05-09T23:38:04.149Z,16.12
2024-05-09T23:43:06.349Z,16.12
2024-05-09T23:48:08.744Z,16.02
2024-05-09T23:53:11.218Z,15.94
2024-05-09T23:58:13.068Z,15.93
